Terminal Aerodrome Forecast
Issued by NWS La Crosse, WI

Home | Current Version | Previous Version | Text Only | Print | Product List | Glossary On
Versions: 1 2 3 4 5 6 7 8 9 10 11 12 13 14 15 16
000
FTUS43 KARX 231726
TAFRST
TAF
KRST 231726Z 2318/2418 14014G25KT P6SM -RA BKN050 OVC070
     FM232200 14018G26KT P6SM OVC050
     FM240700 13019G24KT P6SM -RA OVC030
     FM240900 12014G20KT 4SM -RA BR OVC008
     FM241500 10012KT 5SM -RA BR OVC008=

USA.gov is the U.S. government's official web portal to all federal, state and local government web resources and services.